createdAt,value
2017-11-25T17:29:10.036Z,23.11
2017-11-25T17:31:39.844Z,23.08
2017-11-25T17:42:00.560Z,22.40
2017-11-25T17:44:29.815Z,22.69
2017-11-25T17:46:59.074Z,22.55
2017-11-25T17:49:28.188Z,22.53
2017-11-25T17:54:12.249Z,13.52
2017-11-25T17:56:41.209Z,12.53
2017-11-25T17:59:10.446Z,12.33
2017-11-25T18:01:39.695Z,12.86
2017-11-25T18:04:08.702Z,13.38
2017-11-25T18:06:37.746Z,12.86
2017-11-25T18:09:06.944Z,13.37
2017-11-25T18:11:36.163Z,13.59
2017-11-25T18:14:05.285Z,13.21
2017-11-25T18:16:34.169Z,13.89
2017-11-25T18:19:03.311Z,14.19
2017-11-25T18:21:32.603Z,13.74
2017-11-25T18:24:01.898Z,13.86
2017-11-25T18:26:30.925Z,14.07
2017-11-25T18:28:59.923Z,13.81
2017-11-25T18:31:29.710Z,13.50
2017-11-25T18:33:58.752Z,13.33
2017-11-25T18:36:27.912Z,13.38
2017-11-25T18:38:57.108Z,13.55
2017-11-25T18:41:26.522Z,14.37
2017-11-25T18:43:56.475Z,14.58
2017-11-25T18:46:25.624Z,14.52
2017-11-25T18:48:54.821Z,14.57
2017-11-25T18:51:23.853Z,13.79
2017-11-25T18:53:52.855Z,13.76
2017-11-25T18:56:22.823Z,13.93
2017-11-25T18:58:51.805Z,13.97
2017-11-25T19:01:21.615Z,14.05
2017-11-25T19:03:50.881Z,13.90
2017-11-25T19:06:19.994Z,13.43
2017-11-25T19:08:49.228Z,13.68
2017-11-25T19:11:18.485Z,13.55
2017-11-25T19:13:48.203Z,13.44
2017-11-25T19:16:17.522Z,13.45
2017-11-25T19:18:46.674Z,13.71
2017-11-25T19:21:15.844Z,13.48
2017-11-25T19:23:45.078Z,13.82
2017-11-25T19:26:14.090Z,13.87
2017-11-25T19:28:43.656Z,13.50
2017-11-25T19:31:12.971Z,13.64
2017-11-25T19:33:42.056Z,13.59
2017-11-25T19:36:11.210Z,13.58
2017-11-25T19:38:40.727Z,13.63
2017-11-25T19:41:10.131Z,13.63
2017-11-25T19:43:40.120Z,13.46
2017-11-25T19:46:09.505Z,13.47
2017-11-25T19:48:39.121Z,13.52
2017-11-25T19:51:08.186Z,13.26
2017-11-25T19:53:37.444Z,13.14
2017-11-25T19:56:06.513Z,13.03
2017-11-25T19:58:35.692Z,13.18
2017-11-25T20:01:04.831Z,13.13
2017-11-25T20:03:33.828Z,13.03
2017-11-25T20:06:03.072Z,13.09
2017-11-25T20:08:32.024Z,12.86
2017-11-25T20:11:01.381Z,12.99
2017-11-25T20:13:30.780Z,12.88
2017-11-25T20:15:59.923Z,12.90
2017-11-25T20:18:29.041Z,12.73
2017-11-25T20:20:58.264Z,12.73
2017-11-25T20:23:27.431Z,12.80
2017-11-25T20:25:56.443Z,12.79
2017-11-25T20:28:25.376Z,12.69
2017-11-25T20:30:54.237Z,12.67
2017-11-25T20:33:23.485Z,12.64
2017-11-25T20:35:52.546Z,12.58
2017-11-25T20:38:21.738Z,12.56
2017-11-25T20:40:50.870Z,12.52
2017-11-25T20:43:19.957Z,12.41
2017-11-25T20:45:49.350Z,12.28
2017-11-25T20:48:18.493Z,12.32
2017-11-25T20:50:47.714Z,12.43
2017-11-25T20:53:17.056Z,12.20
2017-11-25T20:55:46.057Z,12.29
2017-11-25T20:58:15.114Z,12.24
2017-11-25T21:00:44.345Z,12.20
2017-11-25T21:03:13.441Z,12.11
2017-11-25T21:05:44.531Z,12.19
2017-11-25T21:08:13.886Z,12.07
2017-11-25T21:10:44.081Z,12.01
2017-11-25T21:13:13.067Z,12.10
2017-11-25T21:15:42.362Z,12.09
2017-11-25T21:18:11.514Z,12.09
2017-11-25T21:20:40.522Z,11.92
2017-11-25T21:23:09.647Z,11.64
2017-11-25T21:25:38.870Z,11.66
2017-11-25T21:28:07.926Z,11.62
2017-11-25T21:30:37.056Z,11.59
2017-11-25T21:33:06.162Z,11.49
2017-11-25T21:35:35.039Z,11.13
2017-11-25T21:38:04.207Z,11.48
2017-11-25T21:40:33.517Z,11.22
2017-11-25T21:43:02.481Z,11.28
2017-11-25T21:45:31.539Z,11.04
2017-11-25T21:48:00.755Z,11.24
2017-11-25T21:50:29.782Z,11.15
2017-11-25T21:52:59.045Z,11.11
2017-11-25T21:55:28.264Z,11.06
2017-11-25T21:57:57.283Z,10.95
2017-11-25T22:00:26.674Z,10.71
2017-11-25T22:02:55.983Z,10.65
2017-11-25T22:05:25.358Z,10.86
2017-11-25T22:07:54.389Z,10.79
2017-11-25T22:10:23.622Z,10.80
2017-11-25T22:12:52.632Z,10.68
2017-11-25T22:15:21.779Z,10.47
2017-11-25T22:17:51.003Z,10.24
2017-11-25T22:20:20.306Z,10.19
2017-11-25T22:22:49.434Z,9.92
2017-11-25T22:25:18.673Z,9.93
2017-11-25T22:27:47.896Z,10.14
2017-11-25T22:30:16.933Z,9.97
2017-11-25T22:32:46.153Z,9.68
2017-11-25T22:35:15.197Z,9.53
2017-11-25T22:37:44.495Z,9.47
2017-11-25T22:40:14.075Z,9.50
2017-11-25T22:42:43.332Z,9.40
2017-11-25T22:45:12.720Z,9.40
2017-11-25T22:47:42.152Z,8.85
2017-11-25T22:50:11.385Z,8.92
2017-11-25T22:52:40.483Z,8.57
2017-11-25T22:55:09.585Z,8.57
2017-11-25T22:57:38.676Z,8.31
2017-11-25T23:00:08.232Z,7.74
2017-11-25T23:02:37.908Z,7.49
2017-11-25T23:05:07.198Z,7.49
2017-11-25T23:07:36.617Z,7.53
2017-11-25T23:10:05.796Z,7.27
2017-11-25T23:12:34.895Z,7.43
2017-11-25T23:15:03.909Z,7.47
2017-11-25T23:17:33.122Z,7.02
2017-11-25T23:20:02.230Z,6.66
2017-11-25T23:22:31.414Z,6.40
2017-11-25T23:25:00.759Z,6.40
2017-11-25T23:27:30.164Z,6.13
2017-11-25T23:29:59.893Z,5.96
2017-11-25T23:32:29.040Z,5.96
2017-11-25T23:34:58.156Z,5.91
2017-11-25T23:37:27.528Z,5.54
2017-11-25T23:39:56.580Z,5.50
2017-11-25T23:42:25.820Z,5.36
2017-11-25T23:44:54.907Z,5.33
2017-11-25T23:47:24.047Z,5.20
2017-11-25T23:49:53.168Z,5.16
2017-11-25T23:52:22.300Z,4.95
2017-11-25T23:54:51.409Z,4.85
2017-11-25T23:57:20.791Z,5.09
2017-11-25T23:59:49.811Z,4.97
